sensor_id;sensor_type;location;lat;lon;timestamp;P1;durP1;ratioP1;P2;durP2;ratioP2
37805;SDS011;25082;50.870;0.022;2022-12-07T00:00:02;4.40;;;3.58;;
37805;SDS011;25082;50.870;0.022;2022-12-07T00:02:28;5.50;;;3.95;;
37805;SDS011;25082;50.870;0.022;2022-12-07T00:04:55;4.95;;;3.30;;
37805;SDS011;25082;50.870;0.022;2022-12-07T00:07:21;6.18;;;4.03;;
37805;SDS011;25082;50.870;0.022;2022-12-07T00:09:47;5.30;;;3.90;;
37805;SDS011;25082;50.870;0.022;2022-12-07T00:12:12;4.95;;;3.60;;
37805;SDS011;25082;50.870;0.022;2022-12-07T00:14:38;5.18;;;4.10;;
37805;SDS011;25082;50.870;0.022;2022-12-07T00:17:04;5.40;;;4.22;;
37805;SDS011;25082;50.870;0.022;2022-12-07T00:19:30;6.00;;;4.38;;
37805;SDS011;25082;50.870;0.022;2022-12-07T00:21:55;5.28;;;3.80;;
37805;SDS011;25082;50.870;0.022;2022-12-07T00:24:21;4.63;;;3.60;;
37805;SDS011;25082;50.870;0.022;2022-12-07T00:26:47;5.63;;;3.83;;
37805;SDS011;25082;50.870;0.022;2022-12-07T00:29:15;4.85;;;3.80;;
37805;SDS011;25082;50.870;0.022;2022-12-07T00:31:45;5.68;;;4.47;;
37805;SDS011;25082;50.870;0.022;2022-12-07T00:34:13;5.85;;;4.50;;
37805;SDS011;25082;50.870;0.022;2022-12-07T00:36:43;6.57;;;4.30;;
37805;SDS011;25082;50.870;0.022;2022-12-07T00:39:09;5.35;;;3.92;;
37805;SDS011;25082;50.870;0.022;2022-12-07T00:41:35;5.90;;;3.53;;
37805;SDS011;25082;50.870;0.022;2022-12-07T00:44:01;6.75;;;3.80;;
37805;SDS011;25082;50.870;0.022;2022-12-07T00:46:27;6.43;;;3.90;;
37805;SDS011;25082;50.870;0.022;2022-12-07T00:48:54;5.80;;;3.92;;
37805;SDS011;25082;50.870;0.022;2022-12-07T00:51:21;6.60;;;4.03;;
37805;SDS011;25082;50.870;0.022;2022-12-07T00:53:48;5.40;;;3.88;;
37805;SDS011;25082;50.870;0.022;2022-12-07T00:56:15;5.30;;;4.00;;
37805;SDS011;25082;50.870;0.022;2022-12-07T00:58:58;4.78;;;3.58;;
37805;SDS011;25082;50.870;0.022;2022-12-07T01:01:26;5.78;;;4.05;;
37805;SDS011;25082;50.870;0.022;2022-12-07T01:03:53;5.53;;;3.95;;
37805;SDS011;25082;50.870;0.022;2022-12-07T01:06:20;5.53;;;3.70;;
37805;SDS011;25082;50.870;0.022;2022-12-07T01:08:46;5.45;;;3.90;;
37805;SDS011;25082;50.870;0.022;2022-12-07T01:11:17;6.38;;;4.55;;
37805;SDS011;25082;50.870;0.022;2022-12-07T01:13:45;6.97;;;4.32;;
37805;SDS011;25082;50.870;0.022;2022-12-07T01:16:12;5.43;;;3.80;;
37805;SDS011;25082;50.870;0.022;2022-12-07T01:18:39;7.43;;;5.03;;
37805;SDS011;25082;50.870;0.022;2022-12-07T01:23:36;7.80;;;4.45;;
37805;SDS011;25082;50.870;0.022;2022-12-07T01:26:03;5.88;;;4.38;;
37805;SDS011;25082;50.870;0.022;2022-12-07T01:28:31;5.30;;;4.15;;
37805;SDS011;25082;50.870;0.022;2022-12-07T01:31:19;5.38;;;4.45;;
37805;SDS011;25082;50.870;0.022;2022-12-07T01:33:45;5.70;;;4.05;;
37805;SDS011;25082;50.870;0.022;2022-12-07T01:38:54;6.10;;;3.92;;
37805;SDS011;25082;50.870;0.022;2022-12-07T01:41:22;5.88;;;4.43;;
37805;SDS011;25082;50.870;0.022;2022-12-07T01:46:33;5.68;;;4.75;;
37805;SDS011;25082;50.870;0.022;2022-12-07T01:48:59;6.43;;;4.22;;
37805;SDS011;25082;50.870;0.022;2022-12-07T01:51:26;5.75;;;3.90;;
37805;SDS011;25082;50.870;0.022;2022-12-07T01:53:53;5.38;;;3.72;;
37805;SDS011;25082;50.870;0.022;2022-12-07T01:56:20;5.85;;;4.10;;
37805;SDS011;25082;50.870;0.022;2022-12-07T01:58:50;6.72;;;4.25;;
37805;SDS011;25082;50.870;0.022;2022-12-07T02:01:17;5.65;;;3.88;;
37805;SDS011;25082;50.870;0.022;2022-12-07T02:03:43;6.45;;;3.85;;
37805;SDS011;25082;50.870;0.022;2022-12-07T02:06:10;6.63;;;4.15;;
37805;SDS011;25082;50.870;0.022;2022-12-07T02:08:41;5.03;;;4.03;;
37805;SDS011;25082;50.870;0.022;2022-12-07T02:11:08;8.57;;;5.20;;
37805;SDS011;25082;50.870;0.022;2022-12-07T02:13:35;4.40;;;3.40;;
37805;SDS011;25082;50.870;0.022;2022-12-07T02:21:20;6.10;;;4.25;;
37805;SDS011;25082;50.870;0.022;2022-12-07T02:24:18;5.35;;;4.05;;
37805;SDS011;25082;50.870;0.022;2022-12-07T02:35:19;6.03;;;3.83;;
37805;SDS011;25082;50.870;0.022;2022-12-07T02:42:58;5.15;;;3.13;;
37805;SDS011;25082;50.870;0.022;2022-12-07T02:45:43;6.90;;;3.47;;
37805;SDS011;25082;50.870;0.022;2022-12-07T02:48:12;5.78;;;3.67;;
37805;SDS011;25082;50.870;0.022;2022-12-07T02:50:44;4.18;;;3.10;;
37805;SDS011;25082;50.870;0.022;2022-12-07T02:53:32;6.07;;;3.95;;
37805;SDS011;25082;50.870;0.022;2022-12-07T02:55:59;5.25;;;3.60;;
37805;SDS011;25082;50.870;0.022;2022-12-07T03:10:18;6.70;;;3.42;;
37805;SDS011;25082;50.870;0.022;2022-12-07T03:18:14;5.85;;;3.17;;
37805;SDS011;25082;50.870;0.022;2022-12-07T03:20:44;5.72;;;3.17;;
37805;SDS011;25082;50.870;0.022;2022-12-07T03:23:14;4.72;;;3.10;;
37805;SDS011;25082;50.870;0.022;2022-12-07T03:25:45;5.15;;;3.05;;
37805;SDS011;25082;50.870;0.022;2022-12-07T03:28:14;6.68;;;3.10;;
37805;SDS011;25082;50.870;0.022;2022-12-07T03:30:47;5.30;;;3.08;;
37805;SDS011;25082;50.870;0.022;2022-12-07T03:33:24;4.47;;;2.85;;
37805;SDS011;25082;50.870;0.022;2022-12-07T03:38:49;5.63;;;3.10;;
37805;SDS011;25082;50.870;0.022;2022-12-07T03:41:28;3.88;;;2.97;;
37805;SDS011;25082;50.870;0.022;2022-12-07T03:43:57;6.40;;;3.42;;
37805;SDS011;25082;50.870;0.022;2022-12-07T03:46:29;6.60;;;3.10;;
37805;SDS011;25082;50.870;0.022;2022-12-07T03:52:03;4.55;;;2.83;;
37805;SDS011;25082;50.870;0.022;2022-12-07T03:54:34;6.45;;;2.92;;
37805;SDS011;25082;50.870;0.022;2022-12-07T03:57:05;5.38;;;3.05;;
37805;SDS011;25082;50.870;0.022;2022-12-07T03:59:33;4.50;;;2.60;;
37805;SDS011;25082;50.870;0.022;2022-12-07T04:02:03;5.50;;;2.88;;
37805;SDS011;25082;50.870;0.022;2022-12-07T04:04:30;6.43;;;3.17;;
37805;SDS011;25082;50.870;0.022;2022-12-07T04:06:56;4.03;;;2.65;;
37805;SDS011;25082;50.870;0.022;2022-12-07T04:09:22;6.82;;;2.83;;
37805;SDS011;25082;50.870;0.022;2022-12-07T04:11:48;3.83;;;3.00;;
37805;SDS011;25082;50.870;0.022;2022-12-07T04:14:15;6.75;;;3.03;;
37805;SDS011;25082;50.870;0.022;2022-12-07T04:16:47;6.13;;;2.58;;
37805;SDS011;25082;50.870;0.022;2022-12-07T04:19:15;4.20;;;2.33;;
37805;SDS011;25082;50.870;0.022;2022-12-07T04:21:42;4.65;;;2.63;;
37805;SDS011;25082;50.870;0.022;2022-12-07T04:24:08;4.68;;;2.70;;
37805;SDS011;25082;50.870;0.022;2022-12-07T04:26:34;4.13;;;2.13;;
37805;SDS011;25082;50.870;0.022;2022-12-07T04:29:00;5.72;;;2.70;;
37805;SDS011;25082;50.870;0.022;2022-12-07T04:31:26;5.70;;;2.38;;
37805;SDS011;25082;50.870;0.022;2022-12-07T04:33:51;4.93;;;2.50;;
37805;SDS011;25082;50.870;0.022;2022-12-07T04:36:17;6.47;;;2.42;;
37805;SDS011;25082;50.870;0.022;2022-12-07T04:38:44;4.80;;;2.00;;
37805;SDS011;25082;50.870;0.022;2022-12-07T04:41:10;4.18;;;2.05;;
37805;SDS011;25082;50.870;0.022;2022-12-07T04:43:36;4.57;;;2.58;;
37805;SDS011;25082;50.870;0.022;2022-12-07T04:46:02;3.55;;;1.98;;
37805;SDS011;25082;50.870;0.022;2022-12-07T04:48:28;5.38;;;2.50;;
37805;SDS011;25082;50.870;0.022;2022-12-07T04:50:54;5.05;;;2.50;;
37805;SDS011;25082;50.870;0.022;2022-12-07T04:53:19;3.63;;;2.25;;
37805;SDS011;25082;50.870;0.022;2022-12-07T04:55:45;4.35;;;2.38;;
37805;SDS011;25082;50.870;0.022;2022-12-07T04:58:11;3.88;;;2.58;;
37805;SDS011;25082;50.870;0.022;2022-12-07T05:00:38;3.67;;;2.25;;
37805;SDS011;25082;50.870;0.022;2022-12-07T05:03:04;4.93;;;2.22;;
37805;SDS011;25082;50.870;0.022;2022-12-07T05:05:30;4.53;;;2.58;;
37805;SDS011;25082;50.870;0.022;2022-12-07T05:07:56;5.15;;;2.42;;
37805;SDS011;25082;50.870;0.022;2022-12-07T05:10:22;3.53;;;1.98;;
37805;SDS011;25082;50.870;0.022;2022-12-07T05:12:47;3.83;;;2.40;;
37805;SDS011;25082;50.870;0.022;2022-12-07T05:15:13;5.78;;;3.03;;
37805;SDS011;25082;50.870;0.022;2022-12-07T05:17:40;7.05;;;2.35;;
37805;SDS011;25082;50.870;0.022;2022-12-07T05:20:06;4.20;;;2.28;;
37805;SDS011;25082;50.870;0.022;2022-12-07T05:22:32;4.90;;;2.65;;
37805;SDS011;25082;50.870;0.022;2022-12-07T05:24:58;5.60;;;2.67;;
37805;SDS011;25082;50.870;0.022;2022-12-07T05:27:24;4.35;;;2.28;;
37805;SDS011;25082;50.870;0.022;2022-12-07T05:29:50;3.53;;;2.33;;
37805;SDS011;25082;50.870;0.022;2022-12-07T05:32:15;3.50;;;2.05;;
37805;SDS011;25082;50.870;0.022;2022-12-07T05:34:41;3.60;;;2.10;;
37805;SDS011;25082;50.870;0.022;2022-12-07T05:37:07;6.03;;;2.47;;
37805;SDS011;25082;50.870;0.022;2022-12-07T05:39:33;3.40;;;2.33;;
37805;SDS011;25082;50.870;0.022;2022-12-07T05:41:58;4.95;;;2.50;;
37805;SDS011;25082;50.870;0.022;2022-12-07T05:44:37;4.43;;;2.53;;
37805;SDS011;25082;50.870;0.022;2022-12-07T05:47:11;3.90;;;2.20;;
37805;SDS011;25082;50.870;0.022;2022-12-07T05:49:38;3.78;;;1.90;;
37805;SDS011;25082;50.870;0.022;2022-12-07T05:52:04;4.93;;;2.58;;
37805;SDS011;25082;50.870;0.022;2022-12-07T05:54:30;6.55;;;3.15;;
37805;SDS011;25082;50.870;0.022;2022-12-07T05:56:56;5.15;;;2.72;;
37805;SDS011;25082;50.870;0.022;2022-12-07T05:59:21;4.10;;;2.35;;
37805;SDS011;25082;50.870;0.022;2022-12-07T06:01:51;4.40;;;2.38;;
37805;SDS011;25082;50.870;0.022;2022-12-07T06:04:29;3.45;;;2.50;;
37805;SDS011;25082;50.870;0.022;2022-12-07T06:06:56;4.43;;;2.35;;
37805;SDS011;25082;50.870;0.022;2022-12-07T06:09:23;4.65;;;2.17;;
37805;SDS011;25082;50.870;0.022;2022-12-07T06:11:49;5.07;;;2.63;;
37805;SDS011;25082;50.870;0.022;2022-12-07T06:14:34;3.80;;;2.17;;
37805;SDS011;25082;50.870;0.022;2022-12-07T06:16:59;5.15;;;2.60;;
37805;SDS011;25082;50.870;0.022;2022-12-07T06:19:26;6.88;;;2.85;;
37805;SDS011;25082;50.870;0.022;2022-12-07T06:21:51;4.55;;;2.40;;
37805;SDS011;25082;50.870;0.022;2022-12-07T06:24:17;4.30;;;2.50;;
37805;SDS011;25082;50.870;0.022;2022-12-07T06:26:43;6.15;;;2.55;;
37805;SDS011;25082;50.870;0.022;2022-12-07T06:29:10;4.40;;;2.10;;
37805;SDS011;25082;50.870;0.022;2022-12-07T06:31:36;3.83;;;2.00;;
37805;SDS011;25082;50.870;0.022;2022-12-07T06:34:03;4.82;;;2.33;;
37805;SDS011;25082;50.870;0.022;2022-12-07T06:36:31;4.50;;;2.88;;
37805;SDS011;25082;50.870;0.022;2022-12-07T06:38:57;4.43;;;2.35;;
37805;SDS011;25082;50.870;0.022;2022-12-07T06:41:23;5.32;;;2.40;;
37805;SDS011;25082;50.870;0.022;2022-12-07T06:43:49;3.95;;;2.30;;
37805;SDS011;25082;50.870;0.022;2022-12-07T06:46:15;3.53;;;2.28;;
37805;SDS011;25082;50.870;0.022;2022-12-07T06:48:42;3.78;;;2.10;;
37805;SDS011;25082;50.870;0.022;2022-12-07T06:51:08;4.30;;;2.13;;
37805;SDS011;25082;50.870;0.022;2022-12-07T06:53:35;4.75;;;2.70;;
37805;SDS011;25082;50.870;0.022;2022-12-07T06:56:01;4.20;;;2.50;;
37805;SDS011;25082;50.870;0.022;2022-12-07T06:58:27;3.85;;;2.08;;
37805;SDS011;25082;50.870;0.022;2022-12-07T07:00:53;3.83;;;2.30;;
37805;SDS011;25082;50.870;0.022;2022-12-07T07:03:19;4.78;;;2.03;;
37805;SDS011;25082;50.870;0.022;2022-12-07T07:05:45;4.47;;;2.22;;
37805;SDS011;25082;50.870;0.022;2022-12-07T07:08:11;4.22;;;2.05;;
37805;SDS011;25082;50.870;0.022;2022-12-07T07:10:37;4.85;;;2.35;;
37805;SDS011;25082;50.870;0.022;2022-12-07T07:13:04;5.43;;;2.50;;
37805;SDS011;25082;50.870;0.022;2022-12-07T07:15:31;4.43;;;2.22;;
37805;SDS011;25082;50.870;0.022;2022-12-07T07:17:57;5.43;;;2.17;;
37805;SDS011;25082;50.870;0.022;2022-12-07T07:20:24;3.58;;;2.00;;
37805;SDS011;25082;50.870;0.022;2022-12-07T07:22:49;2.05;;;1.80;;
37805;SDS011;25082;50.870;0.022;2022-12-07T07:25:15;3.08;;;2.10;;
37805;SDS011;25082;50.870;0.022;2022-12-07T07:27:41;3.60;;;2.08;;
37805;SDS011;25082;50.870;0.022;2022-12-07T07:30:07;4.35;;;2.13;;
37805;SDS011;25082;50.870;0.022;2022-12-07T07:32:34;5.78;;;2.58;;
37805;SDS011;25082;50.870;0.022;2022-12-07T07:34:59;3.88;;;2.55;;
37805;SDS011;25082;50.870;0.022;2022-12-07T07:37:25;3.88;;;2.13;;
37805;SDS011;25082;50.870;0.022;2022-12-07T07:39:51;5.78;;;2.13;;
37805;SDS011;25082;50.870;0.022;2022-12-07T07:42:17;4.22;;;2.35;;
37805;SDS011;25082;50.870;0.022;2022-12-07T07:44:43;4.75;;;2.85;;
37805;SDS011;25082;50.870;0.022;2022-12-07T07:47:08;5.78;;;2.30;;
37805;SDS011;25082;50.870;0.022;2022-12-07T07:49:34;3.65;;;2.60;;
37805;SDS011;25082;50.870;0.022;2022-12-07T07:52:00;7.00;;;2.78;;
37805;SDS011;25082;50.870;0.022;2022-12-07T07:54:26;3.42;;;2.28;;
37805;SDS011;25082;50.870;0.022;2022-12-07T07:56:52;5.35;;;2.42;;
37805;SDS011;25082;50.870;0.022;2022-12-07T07:59:18;4.13;;;2.22;;
37805;SDS011;25082;50.870;0.022;2022-12-07T08:01:44;3.88;;;2.17;;
37805;SDS011;25082;50.870;0.022;2022-12-07T08:04:09;4.75;;;2.60;;
37805;SDS011;25082;50.870;0.022;2022-12-07T08:06:35;3.63;;;2.42;;
37805;SDS011;25082;50.870;0.022;2022-12-07T08:09:02;3.10;;;2.25;;
37805;SDS011;25082;50.870;0.022;2022-12-07T08:11:30;3.42;;;1.95;;
37805;SDS011;25082;50.870;0.022;2022-12-07T08:13:55;2.92;;;2.17;;
37805;SDS011;25082;50.870;0.022;2022-12-07T08:16:21;4.35;;;2.17;;
37805;SDS011;25082;50.870;0.022;2022-12-07T08:18:47;4.60;;;2.53;;
37805;SDS011;25082;50.870;0.022;2022-12-07T08:21:13;4.07;;;2.55;;
37805;SDS011;25082;50.870;0.022;2022-12-07T08:23:40;4.03;;;2.20;;
37805;SDS011;25082;50.870;0.022;2022-12-07T08:26:07;4.13;;;2.22;;
37805;SDS011;25082;50.870;0.022;2022-12-07T08:28:35;2.42;;;1.90;;
37805;SDS011;25082;50.870;0.022;2022-12-07T08:31:06;3.15;;;2.08;;
37805;SDS011;25082;50.870;0.022;2022-12-07T08:33:35;3.88;;;1.98;;
37805;SDS011;25082;50.870;0.022;2022-12-07T08:36:04;3.00;;;2.40;;
37805;SDS011;25082;50.870;0.022;2022-12-07T08:41:02;3.40;;;1.85;;
37805;SDS011;25082;50.870;0.022;2022-12-07T08:43:28;2.75;;;1.90;;
37805;SDS011;25082;50.870;0.022;2022-12-07T08:46:02;4.40;;;2.15;;
37805;SDS011;25082;50.870;0.022;2022-12-07T08:48:39;3.00;;;1.70;;
37805;SDS011;25082;50.870;0.022;2022-12-07T08:51:09;4.07;;;1.83;;
37805;SDS011;25082;50.870;0.022;2022-12-07T08:53:36;2.97;;;1.77;;
37805;SDS011;25082;50.870;0.022;2022-12-07T08:56:03;4.55;;;1.73;;
37805;SDS011;25082;50.870;0.022;2022-12-07T08:58:31;2.80;;;1.67;;
37805;SDS011;25082;50.870;0.022;2022-12-07T09:00:58;3.70;;;1.67;;
37805;SDS011;25082;50.870;0.022;2022-12-07T09:03:24;2.97;;;1.50;;
37805;SDS011;25082;50.870;0.022;2022-12-07T09:05:50;3.97;;;1.60;;
37805;SDS011;25082;50.870;0.022;2022-12-07T09:08:15;2.55;;;1.38;;
37805;SDS011;25082;50.870;0.022;2022-12-07T09:10:41;3.63;;;1.95;;
37805;SDS011;25082;50.870;0.022;2022-12-07T09:13:07;5.68;;;1.70;;
37805;SDS011;25082;50.870;0.022;2022-12-07T09:15:33;3.28;;;1.60;;
37805;SDS011;25082;50.870;0.022;2022-12-07T09:17:59;3.90;;;1.30;;
37805;SDS011;25082;50.870;0.022;2022-12-07T09:20:24;1.75;;;1.42;;
37805;SDS011;25082;50.870;0.022;2022-12-07T09:22:50;4.15;;;1.50;;
37805;SDS011;25082;50.870;0.022;2022-12-07T09:25:16;3.10;;;1.48;;
37805;SDS011;25082;50.870;0.022;2022-12-07T09:27:42;2.95;;;1.60;;
37805;SDS011;25082;50.870;0.022;2022-12-07T09:30:08;2.38;;;1.30;;
37805;SDS011;25082;50.870;0.022;2022-12-07T09:32:33;2.72;;;1.50;;
37805;SDS011;25082;50.870;0.022;2022-12-07T09:34:59;3.10;;;1.77;;
37805;SDS011;25082;50.870;0.022;2022-12-07T09:37:25;3.17;;;1.65;;
37805;SDS011;25082;50.870;0.022;2022-12-07T09:39:51;5.25;;;1.55;;
37805;SDS011;25082;50.870;0.022;2022-12-07T09:42:30;2.70;;;1.63;;
37805;SDS011;25082;50.870;0.022;2022-12-07T09:44:59;2.50;;;1.30;;
37805;SDS011;25082;50.870;0.022;2022-12-07T09:47:26;3.38;;;1.58;;
37805;SDS011;25082;50.870;0.022;2022-12-07T09:49:55;3.90;;;1.45;;
37805;SDS011;25082;50.870;0.022;2022-12-07T09:52:29;3.72;;;1.50;;
37805;SDS011;25082;50.870;0.022;2022-12-07T09:54:55;1.95;;;1.30;;
37805;SDS011;25082;50.870;0.022;2022-12-07T09:57:25;4.03;;;1.98;;
37805;SDS011;25082;50.870;0.022;2022-12-07T09:59:55;3.35;;;1.67;;
37805;SDS011;25082;50.870;0.022;2022-12-07T10:02:28;3.38;;;1.65;;
37805;SDS011;25082;50.870;0.022;2022-12-07T10:05:10;3.33;;;1.38;;
37805;SDS011;25082;50.870;0.022;2022-12-07T10:07:43;3.03;;;1.45;;
37805;SDS011;25082;50.870;0.022;2022-12-07T10:10:20;2.88;;;1.75;;
37805;SDS011;25082;50.870;0.022;2022-12-07T10:12:59;3.50;;;1.70;;
37805;SDS011;25082;50.870;0.022;2022-12-07T10:20:45;2.72;;;1.58;;
37805;SDS011;25082;50.870;0.022;2022-12-07T10:23:15;4.82;;;1.60;;
37805;SDS011;25082;50.870;0.022;2022-12-07T10:25:44;3.47;;;1.52;;
37805;SDS011;25082;50.870;0.022;2022-12-07T10:28:15;2.95;;;1.40;;
37805;SDS011;25082;50.870;0.022;2022-12-07T10:39:10;9.85;;;2.05;;
37805;SDS011;25082;50.870;0.022;2022-12-07T10:49:48;7.35;;;2.35;;
37805;SDS011;25082;50.870;0.022;2022-12-07T10:55:07;9.32;;;1.80;;
37805;SDS011;25082;50.870;0.022;2022-12-07T10:57:44;9.75;;;2.45;;
37805;SDS011;25082;50.870;0.022;2022-12-07T11:00:21;11.93;;;2.05;;
37805;SDS011;25082;50.870;0.022;2022-12-07T11:05:33;12.45;;;2.88;;
37805;SDS011;25082;50.870;0.022;2022-12-07T11:14:05;6.82;;;1.58;;
37805;SDS011;25082;50.870;0.022;2022-12-07T11:16:42;3.65;;;1.48;;
37805;SDS011;25082;50.870;0.022;2022-12-07T11:19:17;7.80;;;1.65;;
37805;SDS011;25082;50.870;0.022;2022-12-07T11:22:06;10.95;;;2.13;;
37805;SDS011;25082;50.870;0.022;2022-12-07T11:24:44;8.25;;;2.00;;
37805;SDS011;25082;50.870;0.022;2022-12-07T11:35:43;6.68;;;2.40;;
37805;SDS011;25082;50.870;0.022;2022-12-07T11:41:05;6.85;;;2.78;;
37805;SDS011;25082;50.870;0.022;2022-12-07T11:43:47;6.97;;;2.00;;
37805;SDS011;25082;50.870;0.022;2022-12-07T11:46:16;11.70;;;5.78;;
37805;SDS011;25082;50.870;0.022;2022-12-07T11:48:58;8.18;;;3.67;;
37805;SDS011;25082;50.870;0.022;2022-12-07T11:51:54;7.03;;;2.80;;
37805;SDS011;25082;50.870;0.022;2022-12-07T11:54:28;8.00;;;2.92;;
37805;SDS011;25082;50.870;0.022;2022-12-07T11:57:02;9.57;;;2.80;;
37805;SDS011;25082;50.870;0.022;2022-12-07T11:59:36;6.43;;;2.63;;
37805;SDS011;25082;50.870;0.022;2022-12-07T12:04:45;5.53;;;2.22;;
37805;SDS011;25082;50.870;0.022;2022-12-07T12:07:15;5.97;;;2.25;;
37805;SDS011;25082;50.870;0.022;2022-12-07T12:14:59;4.93;;;1.65;;
37805;SDS011;25082;50.870;0.022;2022-12-07T12:20:41;7.72;;;2.60;;
37805;SDS011;25082;50.870;0.022;2022-12-07T12:23:41;8.57;;;2.38;;
37805;SDS011;25082;50.870;0.022;2022-12-07T12:26:26;5.18;;;1.83;;
37805;SDS011;25082;50.870;0.022;2022-12-07T12:34:10;8.05;;;2.20;;
37805;SDS011;25082;50.870;0.022;2022-12-07T12:36:57;4.82;;;1.85;;
37805;SDS011;25082;50.870;0.022;2022-12-07T12:39:24;5.72;;;2.25;;
37805;SDS011;25082;50.870;0.022;2022-12-07T12:41:51;19.02;;;7.53;;
37805;SDS011;25082;50.870;0.022;2022-12-07T12:46:48;9.48;;;3.70;;
37805;SDS011;25082;50.870;0.022;2022-12-07T12:51:46;8.68;;;2.72;;
37805;SDS011;25082;50.870;0.022;2022-12-07T12:59:39;6.35;;;2.45;;
37805;SDS011;25082;50.870;0.022;2022-12-07T13:02:28;7.15;;;2.80;;
37805;SDS011;25082;50.870;0.022;2022-12-07T13:18:22;4.82;;;2.40;;
37805;SDS011;25082;50.870;0.022;2022-12-07T13:23:27;4.57;;;2.35;;
37805;SDS011;25082;50.870;0.022;2022-12-07T13:26:14;8.27;;;2.72;;
37805;SDS011;25082;50.870;0.022;2022-12-07T13:28:45;4.70;;;2.53;;
37805;SDS011;25082;50.870;0.022;2022-12-07T13:34:00;5.85;;;2.30;;
37805;SDS011;25082;50.870;0.022;2022-12-07T13:36:28;13.25;;;5.53;;
37805;SDS011;25082;50.870;0.022;2022-12-07T13:39:10;10.98;;;3.78;;
37805;SDS011;25082;50.870;0.022;2022-12-07T13:41:57;7.45;;;3.67;;
37805;SDS011;25082;50.870;0.022;2022-12-07T13:44:26;8.00;;;2.67;;
37805;SDS011;25082;50.870;0.022;2022-12-07T13:49:37;7.38;;;2.90;;
37805;SDS011;25082;50.870;0.022;2022-12-07T13:52:18;7.88;;;2.92;;
37805;SDS011;25082;50.870;0.022;2022-12-07T13:54:47;8.23;;;3.05;;
37805;SDS011;25082;50.870;0.022;2022-12-07T13:57:33;9.82;;;2.88;;
37805;SDS011;25082;50.870;0.022;2022-12-07T14:00:04;8.98;;;3.08;;
37805;SDS011;25082;50.870;0.022;2022-12-07T14:02:53;10.07;;;2.65;;
37805;SDS011;25082;50.870;0.022;2022-12-07T14:05:37;5.95;;;2.20;;
37805;SDS011;25082;50.870;0.022;2022-12-07T14:10:41;6.38;;;2.63;;
37805;SDS011;25082;50.870;0.022;2022-12-07T14:16:00;8.93;;;3.00;;
37805;SDS011;25082;50.870;0.022;2022-12-07T14:18:36;7.55;;;2.25;;
37805;SDS011;25082;50.870;0.022;2022-12-07T14:21:13;12.05;;;3.20;;
37805;SDS011;25082;50.870;0.022;2022-12-07T14:26:46;12.55;;;3.00;;
37805;SDS011;25082;50.870;0.022;2022-12-07T14:31:59;10.32;;;3.17;;
37805;SDS011;25082;50.870;0.022;2022-12-07T14:34:41;13.70;;;3.42;;
37805;SDS011;25082;50.870;0.022;2022-12-07T14:37:17;17.88;;;7.35;;
37805;SDS011;25082;50.870;0.022;2022-12-07T14:39:43;17.90;;;8.68;;
37805;SDS011;25082;50.870;0.022;2022-12-07T14:42:08;14.20;;;7.43;;
37805;SDS011;25082;50.870;0.022;2022-12-07T14:44:35;13.98;;;5.68;;
37805;SDS011;25082;50.870;0.022;2022-12-07T14:47:00;13.68;;;4.47;;
37805;SDS011;25082;50.870;0.022;2022-12-07T14:49:26;11.80;;;4.20;;
37805;SDS011;25082;50.870;0.022;2022-12-07T14:51:52;12.23;;;4.10;;
37805;SDS011;25082;50.870;0.022;2022-12-07T14:54:18;15.30;;;4.35;;
37805;SDS011;25082;50.870;0.022;2022-12-07T14:56:45;6.95;;;3.22;;
37805;SDS011;25082;50.870;0.022;2022-12-07T14:59:16;6.85;;;2.97;;
37805;SDS011;25082;50.870;0.022;2022-12-07T15:01:43;9.07;;;3.70;;
37805;SDS011;25082;50.870;0.022;2022-12-07T15:04:09;12.32;;;3.53;;
37805;SDS011;25082;50.870;0.022;2022-12-07T15:06:35;9.07;;;3.58;;
37805;SDS011;25082;50.870;0.022;2022-12-07T15:09:01;11.88;;;3.28;;
37805;SDS011;25082;50.870;0.022;2022-12-07T15:11:27;10.23;;;3.42;;
37805;SDS011;25082;50.870;0.022;2022-12-07T15:13:53;13.52;;;4.20;;
37805;SDS011;25082;50.870;0.022;2022-12-07T15:16:36;9.13;;;3.58;;
37805;SDS011;25082;50.870;0.022;2022-12-07T15:19:04;9.23;;;3.42;;
37805;SDS011;25082;50.870;0.022;2022-12-07T15:21:30;11.90;;;3.50;;
37805;SDS011;25082;50.870;0.022;2022-12-07T15:23:56;9.52;;;3.67;;
37805;SDS011;25082;50.870;0.022;2022-12-07T15:26:22;5.93;;;2.88;;
37805;SDS011;25082;50.870;0.022;2022-12-07T15:28:48;9.35;;;3.53;;
37805;SDS011;25082;50.870;0.022;2022-12-07T15:31:14;21.65;;;5.20;;
37805;SDS011;25082;50.870;0.022;2022-12-07T15:33:41;17.13;;;4.15;;
37805;SDS011;25082;50.870;0.022;2022-12-07T15:36:07;7.15;;;3.55;;
37805;SDS011;25082;50.870;0.022;2022-12-07T15:38:33;15.05;;;4.00;;
37805;SDS011;25082;50.870;0.022;2022-12-07T15:41:00;9.63;;;4.00;;
37805;SDS011;25082;50.870;0.022;2022-12-07T15:43:26;7.78;;;3.60;;
37805;SDS011;25082;50.870;0.022;2022-12-07T15:46:10;10.50;;;3.65;;
37805;SDS011;25082;50.870;0.022;2022-12-07T15:48:36;9.52;;;3.55;;
37805;SDS011;25082;50.870;0.022;2022-12-07T15:51:04;5.53;;;3.20;;
37805;SDS011;25082;50.870;0.022;2022-12-07T15:53:31;8.43;;;3.42;;
37805;SDS011;25082;50.870;0.022;2022-12-07T15:55:58;6.72;;;3.80;;
37805;SDS011;25082;50.870;0.022;2022-12-07T15:58:24;11.90;;;4.05;;
37805;SDS011;25082;50.870;0.022;2022-12-07T16:00:50;9.98;;;3.78;;
37805;SDS011;25082;50.870;0.022;2022-12-07T16:03:16;6.15;;;3.60;;
37805;SDS011;25082;50.870;0.022;2022-12-07T16:05:41;8.55;;;4.35;;
37805;SDS011;25082;50.870;0.022;2022-12-07T16:08:13;9.40;;;3.65;;
37805;SDS011;25082;50.870;0.022;2022-12-07T16:10:39;8.82;;;3.63;;
37805;SDS011;25082;50.870;0.022;2022-12-07T16:13:08;7.28;;;3.30;;
37805;SDS011;25082;50.870;0.022;2022-12-07T16:15:37;7.43;;;3.33;;
37805;SDS011;25082;50.870;0.022;2022-12-07T16:18:04;7.97;;;3.78;;
37805;SDS011;25082;50.870;0.022;2022-12-07T16:20:30;8.20;;;4.13;;
37805;SDS011;25082;50.870;0.022;2022-12-07T16:22:55;6.15;;;3.17;;
37805;SDS011;25082;50.870;0.022;2022-12-07T16:25:21;7.65;;;3.75;;
37805;SDS011;25082;50.870;0.022;2022-12-07T16:27:47;5.65;;;3.25;;
37805;SDS011;25082;50.870;0.022;2022-12-07T16:30:14;5.40;;;3.05;;
37805;SDS011;25082;50.870;0.022;2022-12-07T16:32:41;6.50;;;3.22;;
37805;SDS011;25082;50.870;0.022;2022-12-07T16:35:07;6.40;;;3.53;;
37805;SDS011;25082;50.870;0.022;2022-12-07T16:37:33;8.45;;;3.22;;
37805;SDS011;25082;50.870;0.022;2022-12-07T16:39:59;7.80;;;2.95;;
37805;SDS011;25082;50.870;0.022;2022-12-07T16:42:25;7.60;;;3.25;;
37805;SDS011;25082;50.870;0.022;2022-12-07T16:44:51;5.07;;;2.80;;
37805;SDS011;25082;50.870;0.022;2022-12-07T16:47:17;7.07;;;2.83;;
37805;SDS011;25082;50.870;0.022;2022-12-07T16:49:44;6.88;;;3.38;;
37805;SDS011;25082;50.870;0.022;2022-12-07T16:52:10;7.53;;;3.13;;
37805;SDS011;25082;50.870;0.022;2022-12-07T16:54:35;5.32;;;3.10;;
37805;SDS011;25082;50.870;0.022;2022-12-07T16:57:01;5.05;;;2.83;;
37805;SDS011;25082;50.870;0.022;2022-12-07T16:59:27;7.07;;;3.15;;
37805;SDS011;25082;50.870;0.022;2022-12-07T17:01:53;8.02;;;3.67;;
37805;SDS011;25082;50.870;0.022;2022-12-07T17:04:19;5.50;;;3.17;;
37805;SDS011;25082;50.870;0.022;2022-12-07T17:06:44;6.78;;;3.20;;
37805;SDS011;25082;50.870;0.022;2022-12-07T17:09:10;5.93;;;3.03;;
37805;SDS011;25082;50.870;0.022;2022-12-07T17:11:37;7.03;;;3.28;;
37805;SDS011;25082;50.870;0.022;2022-12-07T17:14:02;10.68;;;3.40;;
37805;SDS011;25082;50.870;0.022;2022-12-07T17:16:46;8.45;;;3.58;;
37805;SDS011;25082;50.870;0.022;2022-12-07T17:19:14;6.47;;;3.70;;
37805;SDS011;25082;50.870;0.022;2022-12-07T17:21:41;7.03;;;3.05;;
37805;SDS011;25082;50.870;0.022;2022-12-07T17:24:08;6.60;;;3.58;;
37805;SDS011;25082;50.870;0.022;2022-12-07T17:26:35;9.75;;;3.70;;
37805;SDS011;25082;50.870;0.022;2022-12-07T17:29:05;6.15;;;3.35;;
37805;SDS011;25082;50.870;0.022;2022-12-07T17:31:33;8.93;;;3.83;;